createdAt,value
2017-12-15T00:00:19.797Z,0.00
2017-12-15T00:01:19.790Z,0.00
2017-12-15T00:02:19.790Z,0.00
2017-12-15T00:03:19.779Z,0.00
2017-12-15T00:04:19.774Z,0.00
2017-12-15T00:05:19.767Z,0.00
2017-12-15T00:06:19.763Z,0.00
2017-12-15T00:07:19.756Z,0.00
2017-12-15T00:08:19.751Z,0.00
2017-12-15T00:09:19.745Z,0.00
2017-12-15T00:10:19.739Z,0.00
2017-12-15T00:11:19.734Z,0.00
2017-12-15T00:12:19.729Z,0.00
2017-12-15T00:13:19.722Z,0.00
2017-12-15T00:14:19.717Z,0.00
2017-12-15T00:15:19.711Z,0.00
2017-12-15T00:16:19.707Z,0.00
2017-12-15T00:17:19.700Z,0.00
2017-12-15T00:18:19.695Z,0.00
2017-12-15T00:19:19.689Z,0.00
2017-12-15T00:20:19.684Z,0.00
2017-12-15T00:21:19.685Z,0.00
2017-12-15T00:22:19.672Z,0.00
2017-12-15T00:23:19.667Z,0.00
2017-12-15T00:24:19.661Z,0.00
2017-12-15T00:25:19.654Z,0.00
2017-12-15T00:26:19.649Z,0.00
2017-12-15T00:27:19.643Z,0.00
2017-12-15T00:28:19.638Z,0.00
2017-12-15T00:29:19.632Z,0.00
2017-12-15T00:30:19.627Z,0.00
2017-12-15T00:31:19.622Z,0.00
2017-12-15T00:32:19.616Z,0.00
2017-12-15T00:33:19.609Z,0.00
2017-12-15T00:34:19.604Z,0.00
2017-12-15T00:35:19.604Z,0.00
2017-12-15T00:36:19.593Z,0.00
2017-12-15T00:37:19.593Z,0.00
2017-12-15T00:38:19.583Z,0.00
2017-12-15T00:39:19.576Z,0.00
2017-12-15T00:40:19.571Z,0.00
2017-12-15T00:41:19.564Z,0.00
2017-12-15T00:42:19.560Z,0.00
2017-12-15T00:43:19.555Z,0.00
2017-12-15T00:44:19.549Z,0.00
2017-12-15T00:45:19.541Z,0.00
2017-12-15T00:46:19.537Z,0.00
2017-12-15T00:47:19.531Z,0.00
2017-12-15T00:48:19.526Z,0.00
2017-12-15T00:49:19.520Z,0.00
2017-12-15T00:50:19.514Z,0.00
2017-12-15T00:51:19.508Z,0.00
2017-12-15T00:52:19.503Z,0.00
2017-12-15T00:53:19.496Z,0.00
2017-12-15T00:54:19.490Z,0.00
2017-12-15T00:55:19.483Z,0.00
2017-12-15T00:56:19.478Z,0.00
2017-12-15T00:57:19.472Z,0.00
2017-12-15T00:58:19.466Z,0.00
2017-12-15T00:59:19.460Z,0.00
2017-12-15T01:00:19.455Z,0.00
2017-12-15T01:01:19.448Z,0.00
2017-12-15T01:02:19.441Z,0.00
2017-12-15T01:03:19.435Z,0.00
2017-12-15T01:04:19.430Z,0.00
2017-12-15T01:05:19.423Z,0.00
2017-12-15T01:06:19.418Z,0.00
2017-12-15T01:07:19.412Z,0.00
2017-12-15T01:08:19.406Z,0.00
2017-12-15T01:09:19.400Z,0.00
2017-12-15T01:10:19.394Z,0.00
2017-12-15T01:12:19.383Z,0.00
2017-12-15T01:13:19.376Z,0.00
2017-12-15T01:14:19.370Z,0.00
2017-12-15T01:15:19.364Z,0.00
2017-12-15T01:16:19.360Z,0.00
2017-12-15T01:17:19.352Z,0.00
2017-12-15T01:18:19.347Z,0.00
2017-12-15T01:19:19.342Z,0.00
2017-12-15T01:20:19.336Z,0.00
2017-12-15T01:21:19.329Z,0.00
2017-12-15T01:22:19.322Z,0.00
2017-12-15T01:23:19.317Z,0.00
2017-12-15T01:24:19.311Z,0.00
2017-12-15T01:25:19.304Z,0.00
2017-12-15T01:26:19.309Z,0.00
2017-12-15T01:27:19.294Z,0.00
2017-12-15T01:28:19.288Z,0.00
2017-12-15T01:29:19.281Z,0.00
2017-12-15T01:30:19.277Z,0.00
2017-12-15T01:31:19.271Z,0.00
2017-12-15T01:32:19.265Z,0.00
2017-12-15T01:33:19.258Z,0.00
2017-12-15T01:34:19.252Z,0.00
2017-12-15T01:35:19.247Z,0.00
2017-12-15T01:36:19.240Z,0.00
2017-12-15T01:37:19.234Z,0.00
2017-12-15T01:38:19.232Z,0.00
2017-12-15T01:39:19.223Z,0.00
2017-12-15T01:40:19.218Z,0.00
2017-12-15T01:41:19.211Z,0.00
2017-12-15T01:42:19.207Z,0.00
2017-12-15T01:43:19.200Z,0.00
2017-12-15T01:44:19.194Z,0.00
2017-12-15T01:45:19.188Z,0.00
2017-12-15T01:46:19.183Z,0.00
2017-12-15T01:47:19.178Z,0.00
2017-12-15T01:48:19.172Z,0.00
2017-12-15T01:49:19.165Z,0.00
2017-12-15T01:50:19.163Z,0.00
2017-12-15T01:51:19.153Z,0.00
2017-12-15T01:52:19.148Z,0.00
2017-12-15T01:53:19.141Z,0.00
2017-12-15T01:54:19.137Z,0.00
2017-12-15T01:55:19.130Z,0.00
2017-12-15T01:56:19.124Z,0.00
2017-12-15T01:57:19.117Z,0.00
2017-12-15T01:58:19.112Z,0.00
2017-12-15T01:59:19.107Z,0.00
2017-12-15T02:00:19.099Z,0.00
2017-12-15T02:01:19.093Z,0.00
2017-12-15T02:02:19.088Z,0.00
2017-12-15T02:03:19.083Z,0.00
2017-12-15T02:04:19.077Z,0.00
2017-12-15T02:05:19.070Z,0.00
2017-12-15T02:06:19.068Z,0.00
2017-12-15T02:07:19.058Z,0.00
2017-12-15T02:08:19.053Z,0.00
2017-12-15T02:09:19.047Z,0.00
2017-12-15T02:10:19.041Z,0.00
2017-12-15T02:11:19.035Z,0.00
2017-12-15T02:12:19.028Z,0.00
2017-12-15T02:13:19.022Z,0.00
2017-12-15T02:14:19.017Z,0.00
2017-12-15T02:15:19.011Z,0.00
2017-12-15T02:16:19.009Z,0.00
2017-12-15T02:17:18.997Z,0.00
2017-12-15T02:18:18.992Z,0.00
2017-12-15T02:19:18.986Z,0.00
2017-12-15T02:20:18.980Z,0.00
2017-12-15T02:21:18.973Z,0.00
2017-12-15T02:22:18.970Z,0.00
2017-12-15T02:23:18.966Z,0.00
2017-12-15T02:24:18.957Z,0.00
2017-12-15T02:25:18.948Z,0.00
2017-12-15T02:26:18.943Z,0.00
2017-12-15T02:27:18.937Z,0.00
2017-12-15T02:28:18.930Z,0.00
2017-12-15T02:29:18.922Z,0.00
2017-12-15T02:30:18.918Z,0.00
2017-12-15T02:31:18.919Z,0.00
2017-12-15T02:32:18.905Z,0.00
2017-12-15T02:33:18.896Z,0.00
2017-12-15T02:34:18.889Z,0.00
2017-12-15T02:35:18.884Z,0.00
2017-12-15T02:36:18.879Z,0.00
2017-12-15T02:37:18.871Z,0.00
2017-12-15T02:38:18.864Z,0.00
2017-12-15T02:39:18.864Z,0.00
2017-12-15T02:40:18.852Z,0.00
2017-12-15T02:41:18.843Z,0.00
2017-12-15T02:42:18.837Z,0.00
2017-12-15T02:43:18.832Z,0.00
2017-12-15T02:44:18.825Z,0.00
2017-12-15T02:45:18.817Z,0.00
2017-12-15T02:46:18.812Z,0.00
2017-12-15T02:47:18.805Z,0.00
2017-12-15T02:48:18.799Z,0.00
2017-12-15T02:49:18.792Z,0.00
2017-12-15T02:50:18.787Z,0.00
2017-12-15T02:51:18.788Z,0.00
2017-12-15T02:52:18.773Z,0.00
2017-12-15T02:53:18.765Z,0.00
2017-12-15T02:54:18.760Z,0.00
2017-12-15T02:55:18.752Z,0.00
2017-12-15T02:56:18.750Z,0.00
2017-12-15T02:57:18.740Z,0.00
2017-12-15T02:58:18.734Z,0.00
2017-12-15T02:59:18.729Z,0.00
2017-12-15T03:00:18.722Z,0.00
2017-12-15T03:01:18.713Z,0.00
2017-12-15T03:02:18.707Z,0.00
2017-12-15T03:03:18.702Z,0.00
2017-12-15T03:04:18.695Z,0.00
2017-12-15T03:05:18.688Z,0.00
2017-12-15T03:06:18.681Z,0.00
2017-12-15T03:07:18.675Z,0.00
2017-12-15T03:08:18.669Z,0.00
2017-12-15T03:09:18.661Z,0.00
2017-12-15T03:10:18.656Z,0.00
2017-12-15T03:11:18.650Z,0.00
2017-12-15T03:12:18.644Z,0.00
2017-12-15T03:13:18.638Z,0.00
2017-12-15T03:14:18.629Z,0.00
2017-12-15T03:15:18.625Z,0.00
2017-12-15T03:16:18.617Z,0.00
2017-12-15T03:17:18.611Z,0.00
2017-12-15T03:18:18.605Z,0.00
2017-12-15T03:19:18.598Z,0.00
2017-12-15T03:20:18.592Z,0.00
2017-12-15T03:21:18.585Z,0.00
2017-12-15T03:22:18.579Z,0.00
2017-12-15T03:23:18.572Z,0.00
2017-12-15T03:24:18.566Z,0.00
2017-12-15T03:25:18.559Z,0.00
2017-12-15T03:26:18.554Z,0.00
2017-12-15T03:27:18.547Z,0.00
2017-12-15T03:28:18.541Z,0.00
2017-12-15T03:29:18.533Z,0.00
2017-12-15T03:30:18.529Z,0.00
2017-12-15T03:31:18.522Z,0.00
2017-12-15T03:32:18.517Z,0.00
2017-12-15T03:33:18.507Z,0.00
2017-12-15T03:34:18.505Z,0.00
2017-12-15T03:35:18.496Z,0.00
2017-12-15T03:36:18.489Z,0.00
2017-12-15T03:37:18.482Z,0.00
2017-12-15T03:38:18.477Z,0.00
2017-12-15T03:39:18.470Z,0.00
2017-12-15T03:40:18.464Z,0.00
2017-12-15T03:41:18.458Z,0.00
2017-12-15T03:42:18.452Z,0.00
2017-12-15T03:43:18.445Z,0.00
2017-12-15T03:44:18.440Z,0.00
2017-12-15T03:45:18.433Z,0.00
2017-12-15T03:46:18.425Z,0.00
2017-12-15T03:47:18.419Z,0.00
2017-12-15T03:48:18.415Z,0.00
2017-12-15T03:49:18.407Z,0.00
2017-12-15T03:50:18.403Z,0.00
2017-12-15T03:51:18.395Z,0.00
2017-12-15T03:52:18.389Z,0.00
2017-12-15T03:53:18.382Z,0.00
2017-12-15T03:54:18.375Z,0.00
2017-12-15T03:55:18.370Z,0.00
2017-12-15T03:56:18.364Z,0.00
2017-12-15T03:57:18.357Z,0.00
2017-12-15T03:58:18.351Z,0.00
2017-12-15T03:59:18.345Z,0.00
2017-12-15T04:00:18.341Z,0.00
2017-12-15T04:01:18.332Z,0.00
2017-12-15T04:02:18.326Z,0.00
2017-12-15T04:03:18.320Z,0.00
2017-12-15T04:04:18.314Z,0.00
2017-12-15T04:05:18.305Z,0.00
2017-12-15T04:06:18.301Z,0.00
2017-12-15T04:07:18.295Z,0.00
2017-12-15T04:08:18.292Z,0.00
2017-12-15T04:09:18.281Z,0.00
2017-12-15T04:10:18.274Z,0.00
2017-12-15T04:11:18.269Z,0.00
2017-12-15T04:12:18.262Z,0.00
2017-12-15T04:13:18.254Z,0.00
2017-12-15T04:14:18.250Z,0.00
2017-12-15T04:15:18.242Z,0.00
2017-12-15T04:16:18.236Z,0.00
2017-12-15T04:17:18.228Z,0.00
2017-12-15T04:18:18.223Z,0.00
2017-12-15T04:19:18.217Z,0.00
2017-12-15T04:20:18.210Z,0.00
2017-12-15T04:21:18.204Z,0.00
2017-12-15T04:22:18.197Z,0.00
2017-12-15T04:23:18.204Z,0.00
2017-12-15T04:24:18.184Z,0.00
2017-12-15T04:25:18.177Z,0.00
2017-12-15T04:26:18.171Z,0.00
2017-12-15T04:27:18.163Z,0.00
2017-12-15T04:28:18.158Z,0.00
2017-12-15T04:29:18.149Z,0.00
2017-12-15T04:30:18.146Z,0.00
2017-12-15T04:31:18.137Z,0.00
2017-12-15T04:32:18.131Z,0.00
2017-12-15T04:33:18.123Z,0.00
2017-12-15T04:34:18.116Z,0.00
2017-12-15T04:35:18.110Z,0.00
2017-12-15T04:36:18.105Z,0.00
2017-12-15T04:37:18.101Z,0.00
2017-12-15T04:38:18.090Z,0.00
2017-12-15T04:39:18.084Z,0.00
2017-12-15T04:40:18.077Z,0.00
2017-12-15T04:41:18.070Z,0.00
2017-12-15T04:42:18.064Z,0.00
2017-12-15T04:43:18.056Z,0.00
2017-12-15T04:44:18.051Z,0.00
2017-12-15T04:45:18.044Z,0.00
2017-12-15T04:46:18.037Z,0.00
2017-12-15T04:47:18.031Z,0.00
2017-12-15T04:48:18.024Z,0.00
2017-12-15T04:49:18.015Z,0.00
2017-12-15T04:50:18.014Z,0.00
2017-12-15T04:51:18.006Z,0.00
2017-12-15T04:52:17.997Z,0.00
2017-12-15T04:53:17.987Z,0.00
2017-12-15T04:54:17.983Z,0.00
2017-12-15T04:55:17.975Z,0.00
2017-12-15T04:56:17.977Z,0.00
2017-12-15T04:57:17.962Z,0.00
2017-12-15T04:58:17.955Z,0.00
2017-12-15T04:59:17.948Z,0.00
2017-12-15T05:00:17.942Z,0.00
2017-12-15T05:01:17.934Z,0.00
2017-12-15T05:02:17.929Z,0.00
2017-12-15T05:03:17.921Z,0.00
2017-12-15T05:04:17.914Z,0.00
2017-12-15T05:05:17.907Z,0.00
2017-12-15T05:06:17.900Z,0.00
2017-12-15T05:07:17.895Z,0.00
2017-12-15T05:08:17.887Z,0.00
2017-12-15T05:09:17.879Z,0.00
2017-12-15T05:10:17.874Z,0.00
2017-12-15T05:11:17.869Z,0.00
2017-12-15T05:12:17.859Z,0.00
2017-12-15T05:13:17.854Z,0.00
2017-12-15T05:14:17.846Z,0.00
2017-12-15T05:15:17.841Z,0.00
2017-12-15T05:16:17.835Z,0.00
2017-12-15T05:17:17.827Z,0.00
2017-12-15T05:18:17.820Z,0.00
2017-12-15T05:19:17.814Z,0.00
2017-12-15T05:20:17.807Z,0.00
2017-12-15T05:21:17.801Z,0.00
2017-12-15T05:22:17.794Z,0.00
2017-12-15T05:23:17.788Z,0.00
2017-12-15T05:24:17.789Z,0.00
2017-12-15T05:25:17.775Z,0.00
2017-12-15T05:26:17.769Z,0.00
2017-12-15T05:27:17.763Z,0.00
2017-12-15T05:28:17.756Z,0.00
2017-12-15T05:29:17.749Z,0.00
2017-12-15T05:30:17.744Z,0.00
2017-12-15T05:31:17.737Z,0.00
2017-12-15T05:32:17.731Z,0.00
2017-12-15T05:33:17.726Z,0.00
2017-12-15T05:34:17.718Z,0.00
2017-12-15T05:35:17.712Z,0.00
2017-12-15T05:36:17.707Z,0.00
2017-12-15T05:37:17.701Z,0.00
2017-12-15T05:38:17.701Z,0.00
2017-12-15T05:39:17.688Z,0.00
2017-12-15T05:40:17.682Z,0.00
2017-12-15T05:41:17.675Z,0.00
2017-12-15T05:42:17.670Z,0.00
2017-12-15T05:43:17.663Z,0.00
2017-12-15T05:44:17.659Z,0.00
2017-12-15T05:45:17.651Z,0.00
2017-12-15T05:46:17.645Z,0.00
2017-12-15T05:47:17.638Z,0.00
2017-12-15T05:48:17.632Z,0.00
2017-12-15T05:49:17.625Z,0.00
2017-12-15T05:50:17.626Z,0.00
2017-12-15T05:51:17.613Z,0.00
2017-12-15T05:52:17.608Z,0.00
2017-12-15T05:53:17.600Z,0.00
2017-12-15T05:54:17.597Z,0.00
2017-12-15T05:55:17.588Z,0.00
2017-12-15T05:56:17.582Z,0.00
2017-12-15T05:57:17.575Z,0.00
2017-12-15T05:58:17.568Z,0.00
2017-12-15T05:59:17.562Z,0.00
2017-12-15T06:00:17.556Z,0.00
2017-12-15T06:01:17.550Z,0.00
2017-12-15T06:02:17.546Z,0.00
2017-12-15T06:03:17.538Z,0.00
2017-12-15T06:04:17.533Z,0.00
2017-12-15T06:05:17.525Z,0.00
2017-12-15T06:06:17.519Z,0.00
2017-12-15T06:07:17.518Z,0.00
2017-12-15T06:08:17.542Z,0.00
2017-12-15T06:09:17.499Z,0.00
2017-12-15T06:10:17.495Z,0.00
2017-12-15T06:11:17.487Z,0.00
2017-12-15T06:12:17.483Z,0.00
2017-12-15T06:13:17.475Z,0.00
2017-12-15T06:14:17.469Z,0.00
2017-12-15T06:15:17.462Z,0.00
2017-12-15T06:16:17.457Z,0.00
2017-12-15T06:17:17.450Z,0.00
2017-12-15T06:18:17.444Z,0.00
2017-12-15T06:19:17.439Z,0.00
2017-12-15T06:20:17.433Z,0.00
2017-12-15T06:21:17.427Z,0.00
2017-12-15T06:22:17.419Z,0.00
2017-12-15T06:23:17.413Z,0.00
2017-12-15T06:24:17.407Z,0.00
2017-12-15T06:25:17.400Z,0.00
2017-12-15T06:26:17.394Z,0.00
2017-12-15T06:27:17.389Z,0.00
2017-12-15T06:28:17.384Z,0.00
2017-12-15T06:29:17.377Z,0.00
2017-12-15T06:30:17.371Z,0.00
2017-12-15T06:31:17.365Z,0.00
2017-12-15T06:32:17.358Z,0.00
2017-12-15T06:33:17.351Z,0.00
2017-12-15T06:34:17.346Z,0.00
2017-12-15T06:35:17.340Z,0.00
2017-12-15T06:36:17.336Z,0.00
2017-12-15T06:37:17.326Z,0.00
2017-12-15T06:38:17.320Z,0.00
2017-12-15T06:39:17.314Z,0.00
2017-12-15T06:40:17.310Z,0.00
2017-12-15T06:41:17.301Z,0.00
2017-12-15T06:42:17.295Z,0.00
2017-12-15T06:43:17.289Z,0.00
2017-12-15T06:44:17.282Z,0.00
2017-12-15T06:45:17.283Z,0.00
2017-12-15T06:46:17.271Z,0.00
2017-12-15T06:47:17.264Z,0.00
2017-12-15T06:48:17.259Z,0.00
2017-12-15T06:49:17.251Z,0.00
2017-12-15T06:50:17.249Z,0.00
2017-12-15T06:51:17.240Z,0.00
2017-12-15T06:52:17.236Z,0.00
2017-12-15T06:53:17.226Z,0.00
2017-12-15T06:54:17.221Z,0.00
2017-12-15T06:55:17.215Z,0.00
2017-12-15T06:56:17.209Z,0.00
2017-12-15T06:57:17.202Z,0.00
2017-12-15T06:58:17.195Z,0.00
2017-12-15T06:59:17.192Z,0.00
2017-12-15T07:00:17.184Z,0.00
2017-12-15T07:01:17.177Z,0.00
2017-12-15T07:02:17.173Z,0.00
2017-12-15T07:03:17.170Z,5.63
2017-12-15T07:04:17.160Z,5.63
2017-12-15T07:05:17.153Z,5.63
2017-12-15T07:06:17.149Z,5.63
2017-12-15T07:07:17.148Z,5.63
2017-12-15T07:08:17.136Z,5.63
2017-12-15T07:09:17.129Z,5.63
2017-12-15T07:10:17.122Z,5.63
2017-12-15T07:11:17.116Z,5.63
2017-12-15T07:12:17.110Z,11.25
2017-12-15T07:13:17.104Z,11.25
2017-12-15T07:14:17.098Z,11.25
2017-12-15T07:15:17.092Z,11.25
2017-12-15T07:16:17.087Z,11.25
2017-12-15T07:17:17.079Z,11.25
2017-12-15T07:18:17.074Z,11.25
2017-12-15T07:19:17.067Z,11.25
2017-12-15T07:20:17.062Z,11.25
2017-12-15T07:21:17.053Z,11.25
2017-12-15T07:22:17.048Z,11.25
2017-12-15T07:23:17.042Z,11.25
2017-12-15T07:24:17.037Z,11.25
2017-12-15T07:25:17.030Z,16.88
2017-12-15T07:26:17.024Z,16.88
2017-12-15T07:27:17.018Z,16.88
2017-12-15T07:28:17.012Z,16.88
2017-12-15T07:29:17.005Z,16.88
2017-12-15T07:30:16.999Z,16.88
2017-12-15T07:31:16.994Z,16.88
2017-12-15T07:32:16.987Z,16.88
2017-12-15T07:33:16.982Z,16.88
2017-12-15T07:34:16.976Z,22.50
2017-12-15T07:35:16.975Z,22.50
2017-12-15T07:36:16.963Z,22.50
2017-12-15T07:37:16.964Z,22.50
2017-12-15T07:38:16.950Z,28.13
2017-12-15T07:39:16.946Z,28.13
2017-12-15T07:40:16.939Z,28.13
2017-12-15T07:41:16.933Z,28.13
2017-12-15T07:42:16.927Z,28.13
2017-12-15T07:43:16.922Z,28.13
2017-12-15T07:44:16.914Z,28.13
2017-12-15T07:45:16.909Z,33.75
2017-12-15T07:46:16.901Z,33.75
2017-12-15T07:47:16.897Z,33.75
2017-12-15T07:48:16.890Z,33.75
2017-12-15T07:49:16.883Z,39.38
2017-12-15T07:50:16.880Z,45.00
2017-12-15T07:51:16.872Z,45.00
2017-12-15T07:52:16.867Z,50.63
2017-12-15T07:53:16.861Z,106.88
2017-12-15T07:54:16.854Z,67.50
2017-12-15T07:55:16.861Z,78.75
2017-12-15T07:56:16.843Z,73.13
2017-12-15T07:57:16.836Z,78.75
2017-12-15T07:58:16.830Z,78.75
2017-12-15T07:59:16.824Z,90.00
2017-12-15T08:00:16.819Z,101.25
2017-12-15T08:01:16.812Z,106.88
2017-12-15T08:02:16.807Z,106.88
2017-12-15T08:03:16.802Z,101.25
2017-12-15T08:04:16.794Z,106.88
2017-12-15T08:05:16.788Z,106.88
2017-12-15T08:06:16.782Z,112.50
2017-12-15T08:07:17.077Z,112.50
2017-12-15T08:08:16.770Z,118.13
2017-12-15T08:09:16.765Z,118.13
2017-12-15T08:10:16.761Z,118.13
2017-12-15T08:11:16.754Z,106.88
2017-12-15T08:12:16.748Z,118.13
2017-12-15T08:13:16.741Z,101.25
2017-12-15T08:14:16.737Z,106.88
2017-12-15T08:15:16.730Z,106.88
2017-12-15T08:16:16.724Z,101.25
2017-12-15T08:17:16.718Z,95.63
2017-12-15T08:18:16.713Z,90.00
2017-12-15T08:19:16.706Z,90.00
2017-12-15T08:20:16.708Z,90.00
2017-12-15T08:21:16.695Z,90.00
2017-12-15T08:22:16.689Z,95.63
2017-12-15T08:23:16.683Z,101.25
2017-12-15T08:24:16.677Z,112.50
2017-12-15T08:25:16.672Z,123.75
2017-12-15T08:26:16.665Z,129.38
2017-12-15T08:27:16.659Z,129.38
2017-12-15T08:28:16.653Z,129.38
2017-12-15T08:29:16.647Z,123.75
2017-12-15T08:30:16.641Z,112.50
2017-12-15T08:31:16.643Z,112.50
2017-12-15T08:32:16.630Z,106.88
2017-12-15T08:33:16.623Z,106.88
2017-12-15T08:34:16.619Z,106.88
2017-12-15T08:35:16.611Z,112.50
2017-12-15T08:36:16.606Z,112.50
2017-12-15T08:37:16.599Z,118.13
2017-12-15T08:38:16.595Z,118.13
2017-12-15T08:39:16.588Z,123.75
2017-12-15T08:40:16.585Z,129.38
2017-12-15T08:41:16.576Z,129.38
2017-12-15T08:42:16.571Z,129.38
2017-12-15T08:43:16.567Z,129.38
2017-12-15T08:44:16.562Z,135.00
2017-12-15T08:45:16.555Z,135.00
2017-12-15T08:46:16.548Z,151.88
2017-12-15T08:47:16.543Z,281.25
2017-12-15T08:48:16.537Z,168.75
2017-12-15T08:49:16.532Z,112.50
2017-12-15T08:50:16.527Z,112.50
2017-12-15T08:51:16.522Z,106.88
2017-12-15T08:52:16.516Z,106.88
2017-12-15T08:53:16.508Z,123.75
2017-12-15T08:54:16.505Z,123.75
2017-12-15T08:55:16.499Z,348.75
2017-12-15T08:56:16.493Z,489.38
2017-12-15T08:57:16.488Z,118.13
2017-12-15T08:58:16.482Z,112.50
2017-12-15T08:59:16.477Z,112.50
2017-12-15T09:00:16.472Z,118.13
2017-12-15T09:01:16.466Z,140.63
2017-12-15T09:02:16.460Z,118.13
2017-12-15T09:03:16.469Z,118.13
2017-12-15T09:04:16.452Z,112.50
2017-12-15T09:05:16.444Z,106.88
2017-12-15T09:06:16.439Z,106.88
2017-12-15T09:07:16.433Z,106.88
2017-12-15T09:08:16.428Z,140.63
2017-12-15T09:09:16.422Z,129.38
2017-12-15T09:10:16.418Z,303.75
2017-12-15T09:11:16.412Z,163.13
2017-12-15T09:12:16.407Z,151.88
2017-12-15T09:13:16.401Z,129.38
2017-12-15T09:14:16.396Z,146.25
2017-12-15T09:15:16.425Z,309.38
2017-12-15T09:16:16.411Z,168.75
2017-12-15T09:17:16.377Z,123.75
2017-12-15T09:18:16.373Z,118.13
2017-12-15T09:19:16.368Z,118.13
2017-12-15T09:20:16.370Z,123.75
2017-12-15T09:21:16.357Z,129.38
2017-12-15T09:22:16.351Z,258.75
2017-12-15T09:23:16.345Z,376.88
2017-12-15T09:24:16.349Z,601.88
2017-12-15T09:25:16.333Z,343.13
2017-12-15T09:26:16.327Z,230.63
2017-12-15T09:27:16.322Z,309.38
2017-12-15T09:28:16.317Z,343.13
2017-12-15T09:29:16.312Z,247.50
2017-12-15T09:30:16.330Z,163.13
2017-12-15T09:31:16.303Z,258.75
2017-12-15T09:32:16.297Z,135.00
2017-12-15T09:33:16.292Z,123.75
2017-12-15T09:34:16.286Z,118.13
2017-12-15T09:35:16.281Z,112.50
2017-12-15T09:36:16.275Z,112.50
2017-12-15T09:37:16.270Z,112.50
2017-12-15T09:38:16.266Z,118.13
2017-12-15T09:39:16.261Z,123.75
2017-12-15T09:40:16.255Z,140.63
2017-12-15T09:41:16.249Z,146.25
2017-12-15T09:42:16.244Z,185.63
2017-12-15T09:43:16.240Z,309.38
2017-12-15T09:44:16.234Z,376.88
2017-12-15T09:45:16.228Z,270.00
2017-12-15T09:46:16.223Z,376.88
2017-12-15T09:47:16.218Z,393.75
2017-12-15T09:48:16.214Z,298.13
2017-12-15T09:49:16.206Z,376.88
2017-12-15T09:50:16.203Z,326.25
2017-12-15T09:51:16.198Z,258.75
2017-12-15T09:52:16.196Z,151.88
2017-12-15T09:53:16.187Z,146.25
2017-12-15T09:54:16.184Z,140.63
2017-12-15T09:55:16.179Z,129.38
2017-12-15T09:56:16.174Z,123.75
2017-12-15T09:57:16.168Z,123.75
2017-12-15T09:58:16.163Z,118.13
2017-12-15T09:59:16.159Z,112.50
2017-12-15T10:00:16.154Z,112.50
2017-12-15T10:01:16.148Z,106.88
2017-12-15T10:02:16.144Z,106.88
2017-12-15T10:03:16.139Z,106.88
2017-12-15T10:04:16.134Z,106.88
2017-12-15T10:05:16.130Z,106.88
2017-12-15T10:06:16.124Z,106.88
2017-12-15T10:07:16.118Z,106.88
2017-12-15T10:08:16.116Z,106.88
2017-12-15T10:09:16.109Z,101.25
2017-12-15T10:10:16.104Z,106.88
2017-12-15T10:11:16.100Z,106.88
2017-12-15T10:12:16.094Z,101.25
2017-12-15T10:13:16.088Z,101.25
2017-12-15T10:14:16.083Z,101.25
2017-12-15T10:15:16.077Z,101.25
2017-12-15T10:16:16.074Z,101.25
2017-12-15T10:17:16.068Z,112.50
2017-12-15T10:18:16.115Z,118.13
2017-12-15T10:19:16.058Z,118.13
2017-12-15T10:20:16.053Z,118.13
2017-12-15T10:21:16.046Z,123.75
2017-12-15T10:22:16.043Z,123.75
2017-12-15T10:23:16.036Z,118.13
2017-12-15T10:24:16.034Z,118.13
2017-12-15T10:25:16.026Z,123.75
2017-12-15T10:26:16.022Z,140.63
2017-12-15T10:27:16.017Z,157.50
2017-12-15T10:28:16.011Z,168.75
2017-12-15T10:29:16.007Z,174.38
2017-12-15T10:30:16.003Z,174.38
2017-12-15T10:31:15.998Z,174.38
2017-12-15T10:32:15.992Z,174.38
2017-12-15T10:33:15.985Z,174.38
2017-12-15T10:34:15.981Z,180.00
2017-12-15T10:35:15.977Z,180.00
2017-12-15T10:36:15.971Z,185.63
2017-12-15T10:37:15.965Z,388.13
2017-12-15T10:38:15.963Z,180.00
2017-12-15T10:39:15.957Z,168.75
2017-12-15T10:40:15.952Z,219.38
2017-12-15T10:41:15.946Z,196.88
2017-12-15T10:42:15.941Z,168.75
2017-12-15T10:43:15.936Z,157.50
2017-12-15T10:44:15.931Z,157.50
2017-12-15T10:45:15.926Z,151.88
2017-12-15T10:46:15.920Z,151.88
2017-12-15T10:47:15.915Z,151.88
2017-12-15T10:48:15.912Z,151.88
2017-12-15T10:49:15.906Z,157.50
2017-12-15T10:50:15.901Z,157.50
2017-12-15T10:51:15.895Z,157.50
2017-12-15T10:52:15.919Z,151.88
2017-12-15T10:53:15.885Z,146.25
2017-12-15T10:54:15.880Z,146.25
2017-12-15T10:55:15.876Z,140.63
2017-12-15T10:56:15.871Z,135.00
2017-12-15T10:57:15.865Z,135.00
2017-12-15T10:58:15.861Z,135.00
2017-12-15T10:59:15.857Z,140.63
2017-12-15T11:00:15.851Z,140.63
2017-12-15T11:01:15.845Z,140.63
2017-12-15T11:02:15.840Z,140.63
2017-12-15T11:03:15.834Z,146.25
2017-12-15T11:04:15.830Z,151.88
2017-12-15T11:05:15.824Z,157.50
2017-12-15T11:06:15.826Z,157.50
2017-12-15T11:07:15.815Z,151.88
2017-12-15T11:08:15.809Z,151.88
2017-12-15T11:09:15.807Z,146.25
2017-12-15T11:10:15.800Z,140.63
2017-12-15T11:11:15.794Z,140.63
2017-12-15T11:12:15.791Z,146.25
2017-12-15T11:13:15.783Z,151.88
2017-12-15T11:14:15.779Z,191.25
2017-12-15T11:15:15.774Z,309.38
2017-12-15T11:16:15.769Z,253.13
2017-12-15T11:17:15.765Z,208.13
2017-12-15T11:18:15.760Z,191.25
2017-12-15T11:19:15.755Z,185.63
2017-12-15T11:20:15.751Z,230.63
2017-12-15T11:21:15.744Z,348.75
2017-12-15T11:22:15.741Z,421.88
2017-12-15T11:23:15.737Z,225.00
2017-12-15T11:24:15.732Z,202.50
2017-12-15T11:25:15.727Z,517.50
2017-12-15T11:26:15.722Z,517.50
2017-12-15T11:27:15.720Z,213.75
2017-12-15T11:28:15.718Z,208.13
2017-12-15T11:29:15.711Z,337.50
2017-12-15T11:30:15.709Z,354.38
2017-12-15T11:31:15.705Z,320.63
2017-12-15T11:32:15.703Z,326.25
2017-12-15T11:33:15.700Z,416.25
2017-12-15T11:34:15.695Z,455.63
2017-12-15T11:35:15.692Z,382.50
2017-12-15T11:36:15.690Z,348.75
2017-12-15T11:37:15.687Z,298.13
2017-12-15T11:38:15.685Z,281.25
2017-12-15T11:39:15.683Z,270.00
2017-12-15T11:40:15.680Z,337.50
2017-12-15T11:41:15.678Z,421.88
2017-12-15T11:42:15.674Z,444.38
2017-12-15T11:43:15.674Z,354.38
2017-12-15T11:44:15.672Z,292.50
2017-12-15T11:45:15.668Z,258.75
2017-12-15T11:46:15.666Z,258.75
2017-12-15T11:47:15.666Z,275.63
2017-12-15T11:48:15.664Z,236.25
2017-12-15T11:49:15.662Z,230.63
2017-12-15T11:50:15.660Z,213.75
2017-12-15T11:51:15.660Z,196.88
2017-12-15T11:52:15.658Z,191.25
2017-12-15T11:53:15.655Z,191.25
2017-12-15T11:54:15.654Z,191.25
2017-12-15T11:55:15.652Z,191.25
2017-12-15T11:56:15.649Z,208.13
2017-12-15T11:57:15.647Z,230.63
2017-12-15T11:58:15.643Z,241.88
2017-12-15T11:59:15.641Z,253.13
2017-12-15T12:00:15.638Z,258.75
2017-12-15T12:01:15.647Z,303.75
2017-12-15T12:02:15.632Z,303.75
2017-12-15T12:03:15.629Z,320.63
2017-12-15T12:04:15.630Z,236.25
2017-12-15T12:05:15.624Z,202.50
2017-12-15T12:06:15.622Z,236.25
2017-12-15T12:07:15.619Z,253.13
2017-12-15T12:08:15.616Z,275.63
2017-12-15T12:09:15.613Z,388.13
2017-12-15T12:10:15.612Z,348.75
2017-12-15T12:11:15.610Z,303.75
2017-12-15T12:12:15.607Z,309.38
2017-12-15T12:13:15.604Z,348.75
2017-12-15T12:14:15.603Z,450.00
2017-12-15T12:15:15.599Z,371.25
2017-12-15T12:16:15.599Z,382.50
2017-12-15T12:17:15.595Z,421.88
2017-12-15T12:18:15.594Z,371.25
2017-12-15T12:19:15.594Z,331.88
2017-12-15T12:20:15.592Z,303.75
2017-12-15T12:21:15.590Z,331.88
2017-12-15T12:22:15.589Z,320.63
2017-12-15T12:23:15.587Z,337.50
2017-12-15T12:24:15.586Z,416.25
2017-12-15T12:25:15.584Z,450.00
2017-12-15T12:26:15.582Z,466.88
2017-12-15T12:27:15.582Z,461.25
2017-12-15T12:28:15.580Z,421.88
2017-12-15T12:29:15.578Z,450.00
2017-12-15T12:30:15.578Z,461.25
2017-12-15T12:31:15.578Z,388.13
2017-12-15T12:32:15.578Z,376.88
2017-12-15T12:33:15.577Z,343.13
2017-12-15T12:34:15.575Z,433.13
2017-12-15T12:35:15.576Z,433.13
2017-12-15T12:36:15.577Z,450.00
2017-12-15T12:37:15.575Z,393.75
2017-12-15T12:38:15.574Z,393.75
2017-12-15T12:39:15.574Z,348.75
2017-12-15T12:40:15.574Z,382.50
2017-12-15T12:41:15.571Z,371.25
2017-12-15T12:42:15.574Z,348.75
2017-12-15T12:43:15.571Z,337.50
2017-12-15T12:44:15.570Z,315.00
2017-12-15T12:45:15.570Z,270.00
2017-12-15T12:46:15.568Z,236.25
2017-12-15T12:47:15.567Z,208.13
2017-12-15T12:48:15.568Z,168.75
2017-12-15T12:49:15.565Z,163.13
2017-12-15T12:50:15.565Z,168.75
2017-12-15T12:51:15.563Z,174.38
2017-12-15T12:52:15.561Z,185.63
2017-12-15T12:53:15.559Z,174.38
2017-12-15T12:54:15.581Z,163.13
2017-12-15T12:55:15.556Z,163.13
2017-12-15T12:56:15.555Z,151.88
2017-12-15T12:57:15.551Z,151.88
2017-12-15T12:58:15.550Z,157.50